createdAt,value
2019-06-01T00:00:16.042Z,12.40
2019-06-01T00:02:45.305Z,12.40
2019-06-01T00:05:10.426Z,12.40
2019-06-01T00:07:36.548Z,12.30
2019-06-01T00:10:06.247Z,12.30
2019-06-01T00:12:32.428Z,12.40
2019-06-01T00:14:58.496Z,12.40
2019-06-01T00:17:24.580Z,12.40
2019-06-01T00:19:50.648Z,12.50
2019-06-01T00:22:16.747Z,12.40
2019-06-01T00:24:43.821Z,12.30
2019-06-01T00:27:10.021Z,12.30
2019-06-01T00:29:36.088Z,12.30
2019-06-01T00:32:02.181Z,12.30
2019-06-01T00:34:28.250Z,12.30
2019-06-01T00:36:54.317Z,12.30
2019-06-01T00:39:20.411Z,12.20
2019-06-01T00:41:46.481Z,12.30
2019-06-01T00:44:12.563Z,12.20
2019-06-01T00:46:38.652Z,12.20
2019-06-01T00:49:04.739Z,12.20
2019-06-01T00:51:30.933Z,12.30
2019-06-01T00:53:57.113Z,12.30
2019-06-01T00:56:23.186Z,12.30
2019-06-01T00:58:49.819Z,12.20
2019-06-01T01:01:16.137Z,12.20
2019-06-01T01:03:42.200Z,12.20
2019-06-01T01:06:08.291Z,12.20
2019-06-01T01:08:34.374Z,12.10
2019-06-01T01:11:00.562Z,12.10
2019-06-01T01:13:27.046Z,12.10
2019-06-01T01:15:53.510Z,12.00
2019-06-01T01:18:20.023Z,11.90
2019-06-01T01:20:46.150Z,11.90
2019-06-01T01:23:12.222Z,11.80
2019-06-01T01:25:38.283Z,11.90
2019-06-01T01:28:04.608Z,11.80
2019-06-01T01:30:30.989Z,11.80
2019-06-01T01:32:58.896Z,11.80
2019-06-01T01:35:25.119Z,11.80
2019-06-01T01:37:56.575Z,11.80
2019-06-01T01:40:22.664Z,11.80
2019-06-01T01:42:48.883Z,11.80
2019-06-01T01:45:15.661Z,11.80
2019-06-01T01:47:41.756Z,11.80
2019-06-01T01:50:08.421Z,11.80
2019-06-01T01:52:34.504Z,11.80
2019-06-01T01:55:00.568Z,11.80
2019-06-01T01:57:26.727Z,11.80
2019-06-01T01:59:53.338Z,11.70
2019-06-01T02:02:19.600Z,11.70
2019-06-01T02:04:45.681Z,11.70
2019-06-01T02:07:11.758Z,11.70
2019-06-01T02:09:37.831Z,11.70
2019-06-01T02:12:03.904Z,11.70
2019-06-01T02:14:29.985Z,11.70
2019-06-01T02:16:56.308Z,11.70
2019-06-01T02:19:22.546Z,11.70
2019-06-01T02:21:48.616Z,11.70
2019-06-01T02:24:15.043Z,11.60
2019-06-01T02:26:41.123Z,11.60
2019-06-01T02:29:07.303Z,11.60
2019-06-01T02:31:41.384Z,11.60
2019-06-01T02:34:03.363Z,11.50
2019-06-01T02:36:29.416Z,11.40
2019-06-01T02:38:56.531Z,11.40
2019-06-01T02:41:22.907Z,11.40
2019-06-01T02:43:49.004Z,11.30
2019-06-01T02:46:15.184Z,11.30
2019-06-01T02:48:41.265Z,11.40
2019-06-01T02:51:07.333Z,11.40
2019-06-01T02:53:33.421Z,11.50
2019-06-01T02:55:59.911Z,11.50
2019-06-01T02:58:26.185Z,11.50
2019-06-01T03:00:56.583Z,11.50
2019-06-01T03:03:22.744Z,11.50
2019-06-01T03:05:49.538Z,11.40
2019-06-01T03:08:17.217Z,11.30
2019-06-01T03:10:44.785Z,11.30
2019-06-01T03:13:14.175Z,11.30
2019-06-01T03:15:41.776Z,11.30
2019-06-01T03:18:11.862Z,11.30
2019-06-01T03:20:39.528Z,11.30
2019-06-01T03:23:08.613Z,11.30
2019-06-01T03:25:38.291Z,11.20
2019-06-01T03:28:08.214Z,11.20
2019-06-01T03:30:44.614Z,11.30
2019-06-01T03:33:10.108Z,11.30
2019-06-01T03:35:37.147Z,11.30
2019-06-01T03:38:03.297Z,11.20
2019-06-01T03:40:29.479Z,11.30
2019-06-01T03:42:55.648Z,11.30
2019-06-01T03:45:21.740Z,11.30
2019-06-01T03:47:47.830Z,11.30
2019-06-01T03:50:13.901Z,11.30
2019-06-01T03:52:39.983Z,11.30
2019-06-01T03:55:06.168Z,11.40
2019-06-01T03:57:32.229Z,11.50
2019-06-01T03:59:58.290Z,11.40
2019-06-01T04:02:32.805Z,11.60
2019-06-01T04:04:52.438Z,11.70
2019-06-01T04:07:18.882Z,11.80
2019-06-01T04:09:44.962Z,11.80
2019-06-01T04:12:12.010Z,11.90
2019-06-01T04:14:38.270Z,11.90
2019-06-01T04:17:04.346Z,12.00
2019-06-01T04:19:30.523Z,12.10
2019-06-01T04:21:56.615Z,12.10
2019-06-01T04:24:22.683Z,12.20
2019-06-01T04:26:48.752Z,12.20
2019-06-01T04:29:14.837Z,12.20
2019-06-01T04:31:40.938Z,12.20
2019-06-01T04:34:07.088Z,12.30
2019-06-01T04:36:33.171Z,12.40
2019-06-01T04:38:59.242Z,12.40
2019-06-01T04:41:25.319Z,12.40
2019-06-01T04:43:51.391Z,12.40
2019-06-01T04:46:17.488Z,12.50
2019-06-01T04:48:43.551Z,12.50
2019-06-01T04:51:11.603Z,12.60
2019-06-01T04:53:37.617Z,12.60
2019-06-01T04:56:04.785Z,12.60
2019-06-01T04:58:30.963Z,12.80
2019-06-01T05:00:57.028Z,12.80
2019-06-01T05:03:23.110Z,13.00
2019-06-01T05:05:49.192Z,13.00
2019-06-01T05:08:15.614Z,13.10
2019-06-01T05:10:41.860Z,13.20
2019-06-01T05:13:07.967Z,13.30
2019-06-01T05:15:34.043Z,13.30
2019-06-01T05:18:00.111Z,13.40
2019-06-01T05:20:26.199Z,13.50
2019-06-01T05:22:52.276Z,13.60
2019-06-01T05:25:18.460Z,13.80
2019-06-01T05:27:44.528Z,13.90
2019-06-01T05:30:11.585Z,14.10
2019-06-01T05:32:37.892Z,14.10
2019-06-01T05:35:04.886Z,14.20
2019-06-01T05:37:30.953Z,14.50
2019-06-01T05:39:57.038Z,14.70
2019-06-01T05:42:23.123Z,14.80
2019-06-01T05:44:49.202Z,14.90
2019-06-01T05:47:16.254Z,14.90
2019-06-01T05:49:42.434Z,15.00
2019-06-01T05:52:08.520Z,15.00
2019-06-01T05:54:34.604Z,15.20
2019-06-01T05:57:00.673Z,15.30
2019-06-01T05:59:26.753Z,15.40
2019-06-01T06:01:52.823Z,15.60
2019-06-01T06:04:19.543Z,15.80
2019-06-01T06:06:45.772Z,16.10
2019-06-01T06:09:13.225Z,16.40
2019-06-01T06:11:39.547Z,16.50
2019-06-01T06:14:05.616Z,16.70
2019-06-01T06:16:32.101Z,17.00
2019-06-01T06:18:58.165Z,17.20
2019-06-01T06:21:24.228Z,17.50
2019-06-01T06:23:50.312Z,17.60
2019-06-01T06:26:17.305Z,17.90
2019-06-01T06:28:44.384Z,18.00
2019-06-01T06:31:10.447Z,18.20
2019-06-01T06:33:37.040Z,18.40
2019-06-01T06:36:03.273Z,18.60
2019-06-01T06:38:29.336Z,18.60
2019-06-01T06:40:55.446Z,18.90
2019-06-01T06:43:29.689Z,19.00
2019-06-01T06:45:49.485Z,19.20
2019-06-01T06:48:15.553Z,19.50
2019-06-01T06:50:42.943Z,19.70
2019-06-01T06:53:22.414Z,19.90
2019-06-01T06:55:37.113Z,20.00
2019-06-01T06:58:03.191Z,20.20
2019-06-01T07:00:29.285Z,20.40
2019-06-01T07:02:55.444Z,20.60
2019-06-01T07:05:21.545Z,20.60
2019-06-01T07:07:47.708Z,20.70
2019-06-01T07:10:14.104Z,20.70
2019-06-01T07:12:40.292Z,20.90
2019-06-01T07:15:06.485Z,21.20
2019-06-01T07:17:32.643Z,21.10
2019-06-01T07:19:58.820Z,21.10
2019-06-01T07:22:25.810Z,21.30
2019-06-01T07:24:52.281Z,21.50
2019-06-01T07:27:18.372Z,21.80
2019-06-01T07:29:44.550Z,21.90
2019-06-01T07:32:10.830Z,21.90
2019-06-01T07:34:41.561Z,22.00
2019-06-01T07:37:04.889Z,22.10
2019-06-01T07:39:30.971Z,22.40
2019-06-01T07:41:57.085Z,22.50
2019-06-01T07:44:23.239Z,22.60
2019-06-01T07:46:49.302Z,22.60
2019-06-01T07:49:15.375Z,22.60
2019-06-01T07:51:41.439Z,22.80
2019-06-01T07:54:07.519Z,22.90
2019-06-01T07:56:33.592Z,23.10
2019-06-01T07:58:59.679Z,23.10
2019-06-01T08:01:27.146Z,23.30
2019-06-01T08:03:53.737Z,23.30
2019-06-01T08:06:21.913Z,23.10
2019-06-01T08:08:47.792Z,23.20
2019-06-01T08:11:13.858Z,22.80
2019-06-01T08:13:39.938Z,22.90
2019-06-01T08:16:06.012Z,23.10
2019-06-01T08:18:32.337Z,23.40
2019-06-01T08:20:58.472Z,23.50
2019-06-01T08:23:24.561Z,23.40
2019-06-01T08:25:50.657Z,23.50
2019-06-01T08:28:16.801Z,23.30
2019-06-01T08:30:42.885Z,23.20
2019-06-01T08:33:09.060Z,23.00
2019-06-01T08:35:35.143Z,23.10
2019-06-01T08:38:01.232Z,23.30
2019-06-01T08:40:27.428Z,23.50
2019-06-01T08:42:53.607Z,23.70
2019-06-01T08:45:19.749Z,23.70
2019-06-01T08:47:45.895Z,23.70
2019-06-01T08:50:12.391Z,23.80
2019-06-01T08:52:38.460Z,24.00
2019-06-01T08:55:06.348Z,24.10
2019-06-01T08:57:32.520Z,24.10
2019-06-01T08:59:58.819Z,24.10
2019-06-01T09:02:24.996Z,23.90
2019-06-01T09:04:51.152Z,23.90
2019-06-01T09:07:17.235Z,24.10
2019-06-01T09:09:43.319Z,24.20
2019-06-01T09:12:09.498Z,24.40
2019-06-01T09:14:35.691Z,24.70
2019-06-01T09:17:01.972Z,24.40
2019-06-01T09:19:29.327Z,24.50
2019-06-01T09:21:55.607Z,24.50
2019-06-01T09:24:21.734Z,24.30
2019-06-01T09:26:47.904Z,24.40
2019-06-01T09:29:13.968Z,24.50
2019-06-01T09:31:40.055Z,24.50
2019-06-01T09:34:06.140Z,24.70
2019-06-01T09:36:32.463Z,25.00
2019-06-01T09:38:58.709Z,25.10
2019-06-01T09:41:24.784Z,25.00
2019-06-01T09:43:50.881Z,24.90
2019-06-01T09:46:16.943Z,25.10
2019-06-01T09:48:43.015Z,25.20
2019-06-01T09:51:09.207Z,25.30
2019-06-01T09:53:36.091Z,25.30
2019-06-01T09:56:02.968Z,25.10
2019-06-01T09:58:30.166Z,24.70
2019-06-01T10:00:56.409Z,24.60
2019-06-01T10:03:22.492Z,24.80
2019-06-01T10:06:01.320Z,24.70
2019-06-01T10:08:16.547Z,24.70
2019-06-01T10:10:42.640Z,24.60
2019-06-01T10:13:08.713Z,24.80
2019-06-01T10:15:34.803Z,25.00
2019-06-01T10:18:00.857Z,25.10
2019-06-01T10:20:26.905Z,25.20
2019-06-01T10:22:52.969Z,25.40
2019-06-01T10:25:19.021Z,25.60
2019-06-01T10:27:45.091Z,25.60
2019-06-01T10:30:12.537Z,25.40
2019-06-01T10:32:39.794Z,25.30
2019-06-01T10:35:06.900Z,25.20
2019-06-01T10:37:33.365Z,25.40
2019-06-01T10:39:59.557Z,25.40
2019-06-01T10:42:25.645Z,25.60
2019-06-01T10:44:51.716Z,25.80
2019-06-01T10:47:17.791Z,25.80
2019-06-01T10:49:43.865Z,25.70
2019-06-01T10:52:09.951Z,25.80
2019-06-01T10:54:36.211Z,25.70
2019-06-01T10:57:02.400Z,25.70
2019-06-01T10:59:28.474Z,25.50
2019-06-01T11:01:54.664Z,25.50
2019-06-01T11:04:20.732Z,25.60
2019-06-01T11:06:48.833Z,25.60
2019-06-01T11:09:14.795Z,26.00
2019-06-01T11:11:41.128Z,26.10
2019-06-01T11:14:07.457Z,26.30
2019-06-01T11:16:35.059Z,26.50
2019-06-01T11:19:01.320Z,26.60
2019-06-01T11:21:27.404Z,27.00
2019-06-01T11:23:53.582Z,27.10
2019-06-01T11:26:19.664Z,27.20
2019-06-01T11:28:45.754Z,27.20
2019-06-01T11:31:11.831Z,27.10
2019-06-01T11:33:38.229Z,27.20
2019-06-01T11:36:04.485Z,27.10
2019-06-01T11:38:30.579Z,27.10
2019-06-01T11:40:56.647Z,27.40
2019-06-01T11:43:22.761Z,27.60
2019-06-01T11:45:48.924Z,27.70
2019-06-01T11:48:15.008Z,27.40
2019-06-01T11:50:41.272Z,27.30
2019-06-01T11:53:07.577Z,27.50
2019-06-01T11:55:35.043Z,27.70
2019-06-01T11:58:01.321Z,27.70
2019-06-01T12:00:27.794Z,27.60
2019-06-01T12:02:53.963Z,27.50
2019-06-01T12:05:20.043Z,27.70
2019-06-01T12:07:46.214Z,27.50
2019-06-01T12:10:12.712Z,27.40
2019-06-01T12:12:40.050Z,27.50
2019-06-01T12:15:06.973Z,27.60
2019-06-01T12:17:33.061Z,27.80
2019-06-01T12:19:59.128Z,28.20
2019-06-01T12:22:25.208Z,28.50
2019-06-01T12:24:51.291Z,28.50
2019-06-01T12:27:17.385Z,28.00
2019-06-01T12:29:43.775Z,28.00
2019-06-01T12:32:09.948Z,28.60
2019-06-01T12:34:36.048Z,29.00
2019-06-01T12:37:02.133Z,29.70
2019-06-01T12:39:28.229Z,30.60
2019-06-01T12:41:54.305Z,31.50
2019-06-01T12:44:20.390Z,32.40
2019-06-01T12:46:46.950Z,33.40
2019-06-01T12:49:13.340Z,34.40
2019-06-01T12:51:40.565Z,35.20
2019-06-01T12:54:06.997Z,35.70
2019-06-01T12:56:33.093Z,35.90
2019-06-01T12:58:59.160Z,36.00
2019-06-01T13:01:25.243Z,35.50
2019-06-01T13:03:52.067Z,36.00
2019-06-01T13:06:18.199Z,36.30
2019-06-01T13:08:44.736Z,36.80
2019-06-01T13:11:10.911Z,37.20
2019-06-01T13:13:36.985Z,36.80
2019-06-01T13:16:03.072Z,36.00
2019-06-01T13:18:29.150Z,35.60
2019-06-01T13:20:55.256Z,35.40
2019-06-01T13:23:21.309Z,34.50
2019-06-01T13:25:47.671Z,33.30
2019-06-01T13:28:13.949Z,33.80
2019-06-01T13:30:40.024Z,33.90
2019-06-01T13:33:06.234Z,34.20
2019-06-01T13:35:32.420Z,34.30
2019-06-01T13:38:10.679Z,35.00
2019-06-01T13:40:26.504Z,35.30
2019-06-01T13:42:53.210Z,35.90
2019-06-01T13:45:19.460Z,36.60
2019-06-01T13:47:45.555Z,36.50
2019-06-01T13:50:12.047Z,36.20
2019-06-01T13:52:38.136Z,36.90
2019-06-01T13:55:05.830Z,37.70
2019-06-01T13:57:31.896Z,38.30
2019-06-01T13:59:58.016Z,38.20
2019-06-01T14:02:24.160Z,37.60
2019-06-01T14:04:50.249Z,38.10
2019-06-01T14:07:16.311Z,38.00
2019-06-01T14:09:42.375Z,37.60
2019-06-01T14:12:08.459Z,37.70
2019-06-01T14:14:34.528Z,38.10
2019-06-01T14:17:00.623Z,38.80
2019-06-01T14:19:26.709Z,39.00
2019-06-01T14:21:54.065Z,39.80
2019-06-01T14:24:20.481Z,39.10
2019-06-01T14:26:47.951Z,38.20
2019-06-01T14:29:14.363Z,38.90
2019-06-01T14:31:40.430Z,38.90
2019-06-01T14:34:06.533Z,39.60
2019-06-01T14:36:32.603Z,40.10
2019-06-01T14:38:58.919Z,40.50
2019-06-01T14:41:25.251Z,40.50
2019-06-01T14:43:51.324Z,41.00
2019-06-01T14:46:17.504Z,41.30
2019-06-01T14:48:43.570Z,40.90
2019-06-01T14:51:09.656Z,40.40
2019-06-01T14:53:35.721Z,39.60
2019-06-01T14:56:01.783Z,39.40
2019-06-01T14:58:27.859Z,39.10
2019-06-01T15:00:54.593Z,39.10
2019-06-01T15:03:20.800Z,39.30
2019-06-01T15:05:48.067Z,39.60
2019-06-01T15:08:14.465Z,39.60
2019-06-01T15:10:40.538Z,39.50
2019-06-01T15:13:06.642Z,39.90
2019-06-01T15:15:32.799Z,40.40
2019-06-01T15:17:58.969Z,40.50
2019-06-01T15:20:25.061Z,41.10
2019-06-01T15:22:52.187Z,41.20
2019-06-01T15:25:18.413Z,41.10
2019-06-01T15:27:44.489Z,40.80
2019-06-01T15:30:13.101Z,40.40
2019-06-01T15:32:39.314Z,40.70
2019-06-01T15:35:07.560Z,40.80
2019-06-01T15:37:33.658Z,40.60
2019-06-01T15:39:59.832Z,40.10
2019-06-01T15:42:25.900Z,39.50
2019-06-01T15:44:53.026Z,38.20
2019-06-01T15:47:19.259Z,37.40
2019-06-01T15:49:45.363Z,37.90
2019-06-01T15:52:11.518Z,38.50
2019-06-01T15:54:37.594Z,38.90
2019-06-01T15:57:03.760Z,38.30
2019-06-01T15:59:29.856Z,37.50
2019-06-01T16:01:57.290Z,35.90
2019-06-01T16:04:23.613Z,34.50
2019-06-01T16:06:49.703Z,34.50
2019-06-01T16:09:15.773Z,34.50
2019-06-01T16:11:41.859Z,34.80
2019-06-01T16:14:07.940Z,35.00
2019-06-01T16:16:34.028Z,34.30
2019-06-01T16:19:05.739Z,33.80
2019-06-01T16:21:28.090Z,32.60
2019-06-01T16:23:54.171Z,31.80
2019-06-01T16:26:20.251Z,31.40
2019-06-01T16:28:46.346Z,31.70
2019-06-01T16:31:12.452Z,32.00
2019-06-01T16:33:38.527Z,32.80
2019-06-01T16:36:05.568Z,33.40
2019-06-01T16:38:31.780Z,33.50
2019-06-01T16:40:57.894Z,33.00
2019-06-01T16:43:24.267Z,33.00
2019-06-01T16:45:50.564Z,32.80
2019-06-01T16:48:16.640Z,32.60
2019-06-01T16:50:42.919Z,32.10
2019-06-01T16:53:09.020Z,31.70
2019-06-01T16:55:35.106Z,30.90
2019-06-01T16:58:01.352Z,30.30
2019-06-01T17:00:27.768Z,30.20
2019-06-01T17:02:53.845Z,30.20
2019-06-01T17:05:20.043Z,30.10
2019-06-01T17:07:46.116Z,30.00
2019-06-01T17:10:25.861Z,30.00
2019-06-01T17:12:43.496Z,29.90
2019-06-01T17:15:11.084Z,29.50
2019-06-01T17:17:37.156Z,29.20
2019-06-01T17:20:05.335Z,28.90
2019-06-01T17:22:31.515Z,28.60
2019-06-01T17:24:57.804Z,28.20
2019-06-01T17:27:23.890Z,28.00
2019-06-01T17:29:49.980Z,27.70
2019-06-01T17:32:23.945Z,27.50
2019-06-01T17:34:44.032Z,27.50
2019-06-01T17:37:10.128Z,27.20
2019-06-01T17:39:36.198Z,27.10
2019-06-01T17:42:02.490Z,26.90
2019-06-01T17:44:29.055Z,26.80
2019-06-01T17:46:55.180Z,26.80
2019-06-01T17:49:21.338Z,26.70
2019-06-01T17:51:49.008Z,26.50
2019-06-01T17:54:15.077Z,26.30
2019-06-01T17:56:41.156Z,26.20
2019-06-01T17:59:07.544Z,26.00
2019-06-01T18:01:33.799Z,25.70
2019-06-01T18:03:59.865Z,25.40
2019-06-01T18:06:26.256Z,25.20
2019-06-01T18:08:52.324Z,24.90
2019-06-01T18:11:18.405Z,24.50
2019-06-01T18:13:44.473Z,24.50
2019-06-01T18:16:10.564Z,24.20
2019-06-01T18:18:36.847Z,24.10
2019-06-01T18:21:04.169Z,24.00
2019-06-01T18:23:30.408Z,23.90
2019-06-01T18:25:56.576Z,23.80
2019-06-01T18:28:22.691Z,23.60
2019-06-01T18:30:49.171Z,23.60
2019-06-01T18:33:15.279Z,23.50
2019-06-01T18:35:41.360Z,23.40
2019-06-01T18:38:07.755Z,23.30
2019-06-01T18:40:34.124Z,23.20
2019-06-01T18:43:04.038Z,23.00
2019-06-01T18:45:30.911Z,22.90
2019-06-01T18:47:57.197Z,22.80
2019-06-01T18:50:23.378Z,22.60
2019-06-01T18:52:49.672Z,22.60
2019-06-01T18:55:15.755Z,22.50
2019-06-01T18:57:45.628Z,22.40
2019-06-01T19:00:15.176Z,22.30
2019-06-01T19:02:41.092Z,22.10
2019-06-01T19:05:09.139Z,22.00
2019-06-01T19:07:35.569Z,21.80
2019-06-01T19:10:05.262Z,21.60
2019-06-01T19:12:31.432Z,21.20
2019-06-01T19:14:57.518Z,20.90
2019-06-01T19:17:23.705Z,20.70
2019-06-01T19:19:49.770Z,20.40
2019-06-01T19:22:16.731Z,20.30
2019-06-01T19:24:42.932Z,20.10
2019-06-01T19:27:09.032Z,20.00
2019-06-01T19:29:35.108Z,19.90
2019-06-01T19:32:01.215Z,19.80
2019-06-01T19:34:27.413Z,19.50
2019-06-01T19:36:53.580Z,19.20
2019-06-01T19:39:21.392Z,18.90
2019-06-01T19:41:47.483Z,18.70
2019-06-01T19:44:13.688Z,18.60
2019-06-01T19:46:39.931Z,18.50
2019-06-01T19:49:06.011Z,18.40
2019-06-01T19:51:32.199Z,18.30
2019-06-01T19:53:58.332Z,18.10
2019-06-01T19:56:24.440Z,18.10
2019-06-01T19:58:50.516Z,18.10
2019-06-01T20:01:16.567Z,18.10
2019-06-01T20:03:42.631Z,18.00
2019-06-01T20:06:08.691Z,18.00
2019-06-01T20:08:34.786Z,18.00
2019-06-01T20:11:01.112Z,17.80
2019-06-01T20:13:27.267Z,17.70
2019-06-01T20:15:53.369Z,17.60
2019-06-01T20:18:19.462Z,17.60
2019-06-01T20:20:45.747Z,17.50
2019-06-01T20:23:13.050Z,17.40
2019-06-01T20:25:39.428Z,17.30
2019-06-01T20:28:05.629Z,17.30
2019-06-01T20:30:31.934Z,17.20
2019-06-01T20:32:58.022Z,17.20
2019-06-01T20:35:24.084Z,17.10
2019-06-01T20:37:50.177Z,17.00
2019-06-01T20:40:16.333Z,16.90
2019-06-01T20:42:42.559Z,16.80
2019-06-01T20:45:08.828Z,16.70
2019-06-01T20:47:34.933Z,16.60
2019-06-01T20:50:02.725Z,16.60
2019-06-01T20:52:28.885Z,16.50
2019-06-01T20:54:55.173Z,16.50
2019-06-01T20:57:21.516Z,16.40
2019-06-01T20:59:47.832Z,16.30
2019-06-01T21:02:14.006Z,16.30
2019-06-01T21:04:40.097Z,16.30
2019-06-01T21:07:06.261Z,16.30
2019-06-01T21:09:32.472Z,16.30
2019-06-01T21:11:58.656Z,16.30
2019-06-01T21:14:24.760Z,16.20
2019-06-01T21:16:51.035Z,16.20
2019-06-01T21:19:18.145Z,16.20
2019-06-01T21:21:44.482Z,16.20
2019-06-01T21:24:10.576Z,16.20
2019-06-01T21:26:36.643Z,16.10
2019-06-01T21:29:03.223Z,16.10
2019-06-01T21:31:29.320Z,16.00
2019-06-01T21:33:55.407Z,16.00
2019-06-01T21:36:21.611Z,15.90
2019-06-01T21:38:47.793Z,16.00
2019-06-01T21:41:15.389Z,16.00
2019-06-01T21:43:41.758Z,15.90
2019-06-01T21:46:07.831Z,15.80
2019-06-01T21:48:34.011Z,15.80
2019-06-01T21:51:00.073Z,15.70
2019-06-01T21:53:26.669Z,15.60
2019-06-01T21:55:52.948Z,15.60
2019-06-01T21:58:20.935Z,15.60
2019-06-01T22:00:47.724Z,15.60
2019-06-01T22:03:14.111Z,15.70
2019-06-01T22:05:40.784Z,15.70
2019-06-01T22:08:06.952Z,15.70
2019-06-01T22:10:33.043Z,15.70
2019-06-01T22:12:59.099Z,15.60
2019-06-01T22:15:25.874Z,15.60
2019-06-01T22:17:52.084Z,15.60
2019-06-01T22:20:18.280Z,15.60
2019-06-01T22:22:44.347Z,15.50
2019-06-01T22:25:10.452Z,15.50
2019-06-01T22:27:36.553Z,15.40
2019-06-01T22:30:04.125Z,15.40
2019-06-01T22:32:31.772Z,15.40
2019-06-01T22:34:58.176Z,15.30
2019-06-01T22:37:24.248Z,15.30
2019-06-01T22:39:50.350Z,15.30
2019-06-01T22:42:16.404Z,15.40
2019-06-01T22:44:42.493Z,15.40
2019-06-01T22:47:08.567Z,15.40
2019-06-01T22:49:35.781Z,15.30
2019-06-01T22:52:01.868Z,15.40
2019-06-01T22:54:29.258Z,15.30
2019-06-01T22:56:55.663Z,15.30
2019-06-01T22:59:22.451Z,15.20
2019-06-01T23:01:48.716Z,15.20
2019-06-01T23:04:14.801Z,15.20
2019-06-01T23:06:40.867Z,15.20
2019-06-01T23:09:07.263Z,15.30
2019-06-01T23:11:33.534Z,15.30
2019-06-01T23:13:59.639Z,15.30
2019-06-01T23:16:25.733Z,15.30
2019-06-01T23:18:51.916Z,15.30
2019-06-01T23:21:18.030Z,15.30
2019-06-01T23:23:44.183Z,15.40
2019-06-01T23:26:10.263Z,15.40
2019-06-01T23:28:38.749Z,15.30
2019-06-01T23:31:04.419Z,15.30
2019-06-01T23:33:30.967Z,15.30
2019-06-01T23:35:57.288Z,15.30
2019-06-01T23:38:24.544Z,15.30
2019-06-01T23:40:50.851Z,15.20
2019-06-01T23:43:16.942Z,15.20
2019-06-01T23:45:43.027Z,15.10
2019-06-01T23:48:09.183Z,15.10
2019-06-01T23:50:35.269Z,15.00
2019-06-01T23:53:13.238Z,15.00
2019-06-01T23:55:29.888Z,15.00
2019-06-01T23:57:56.163Z,15.00
